createdAt,value
2022-12-01T00:01:35.256Z,99124.91
2022-12-01T00:04:03.221Z,99122.81
2022-12-01T00:06:31.672Z,99123.66
2022-12-01T00:09:20.232Z,99125.19
2022-12-01T00:11:48.936Z,99116.25
2022-12-01T00:14:17.006Z,99120.66
2022-12-01T00:16:45.144Z,99125.25
2022-12-01T00:19:13.328Z,99106.63
2022-12-01T00:21:41.206Z,99121.81
2022-12-01T00:24:10.662Z,99122.84
2022-12-01T00:26:39.054Z,99124.53
2022-12-01T00:29:07.113Z,99121.50
2022-12-01T00:31:35.140Z,99120.47
2022-12-01T00:34:06.924Z,99120.72
2022-12-01T00:36:39.750Z,99116.13
2022-12-01T00:39:08.513Z,99131.00
2022-12-01T00:41:36.436Z,99126.09
2022-12-01T00:44:04.689Z,99127.31
2022-12-01T00:46:32.691Z,99130.00
2022-12-01T00:49:00.694Z,99121.88
2022-12-01T00:51:28.565Z,99128.91
2022-12-01T00:53:56.534Z,99129.97
2022-12-01T00:56:24.546Z,99132.44
2022-12-01T00:58:52.443Z,99120.59
2022-12-01T01:01:20.477Z,99126.00
2022-12-01T01:03:48.416Z,99125.66
2022-12-01T01:06:16.611Z,99123.50
2022-12-01T01:08:46.427Z,99129.72
2022-12-01T01:11:14.479Z,99127.59
2022-12-01T01:13:42.335Z,99133.56
2022-12-01T01:16:15.394Z,99131.66
2022-12-01T01:18:43.456Z,99122.72
2022-12-01T01:21:14.097Z,99136.88
2022-12-01T01:23:42.269Z,99130.63
2022-12-01T01:26:21.691Z,99129.81
2022-12-01T01:28:50.586Z,99126.28
2022-12-01T01:31:21.490Z,99139.28
2022-12-01T01:33:51.091Z,99134.97
2022-12-01T01:36:19.815Z,99132.28
2022-12-01T01:38:48.273Z,99138.00
2022-12-01T01:41:16.846Z,99142.88
2022-12-01T01:43:53.992Z,99133.38
2022-12-01T01:46:28.132Z,99135.31
2022-12-01T01:49:07.911Z,99137.19
2022-12-01T01:51:45.537Z,99123.63
2022-12-01T01:54:27.294Z,99141.81
2022-12-01T01:56:57.834Z,99124.72
2022-12-01T01:59:31.307Z,99138.03
2022-12-01T02:02:08.576Z,99129.06
2022-12-01T02:04:40.373Z,99125.81
2022-12-01T02:07:09.388Z,99119.81
2022-12-01T02:09:37.337Z,99122.00
2022-12-01T02:12:24.439Z,99129.03
2022-12-01T02:14:55.230Z,99134.75
2022-12-01T02:17:30.703Z,99129.03
2022-12-01T02:20:10.404Z,99126.63
2022-12-01T02:22:55.348Z,99131.53
2022-12-01T02:25:47.393Z,99132.56
2022-12-01T02:28:48.396Z,99125.28
2022-12-01T02:31:50.732Z,99114.72
2022-12-01T02:34:46.913Z,99131.53
2022-12-01T02:37:24.296Z,99116.38
2022-12-01T02:40:02.052Z,99125.84
2022-12-01T02:43:02.256Z,99126.94
2022-12-01T02:45:42.320Z,99126.38
2022-12-01T02:48:16.889Z,99125.53
2022-12-01T02:50:46.786Z,99108.19
2022-12-01T02:53:18.514Z,99123.63
2022-12-01T02:55:52.739Z,99118.22
2022-12-01T02:58:22.116Z,99120.09
2022-12-01T03:01:24.627Z,99115.22
2022-12-01T03:04:01.785Z,99114.19
2022-12-01T03:07:05.266Z,99112.78
2022-12-01T03:09:56.938Z,99101.44
2022-12-01T03:12:49.244Z,99100.91
2022-12-01T03:15:31.484Z,99101.47
2022-12-01T03:18:08.429Z,99100.66
2022-12-01T03:20:55.101Z,99105.22
2022-12-01T03:23:28.109Z,99104.16
2022-12-01T03:25:59.829Z,99104.16
2022-12-01T03:28:35.865Z,99106.88
2022-12-01T03:31:09.321Z,99114.19
2022-12-01T03:33:44.642Z,99109.88
2022-12-01T03:36:29.387Z,99104.97
2022-12-01T03:39:04.818Z,99093.84
2022-12-01T03:41:42.700Z,99107.69
2022-12-01T03:44:21.626Z,99112.03
2022-12-01T03:47:20.831Z,99102.28
2022-12-01T03:49:51.919Z,99101.97
2022-12-01T03:52:31.986Z,99099.25
2022-12-01T03:55:14.451Z,99103.59
2022-12-01T03:57:44.975Z,99097.41
2022-12-01T04:00:14.804Z,99099.28
2022-12-01T04:02:44.826Z,99098.75
2022-12-01T04:05:13.522Z,99101.97
2022-12-01T04:07:41.476Z,99106.03
2022-12-01T04:10:09.625Z,99106.06
2022-12-01T04:12:37.646Z,99109.84
2022-12-01T04:15:12.526Z,99116.09
2022-12-01T04:17:45.105Z,99113.38
2022-12-01T04:20:14.985Z,99116.63
2022-12-01T04:22:42.863Z,99125.03
2022-12-01T04:25:11.715Z,99125.03
2022-12-01T04:27:39.887Z,99120.94
2022-12-01T04:30:08.677Z,99109.81
2022-12-01T04:32:41.245Z,99117.16
2022-12-01T04:35:11.735Z,99113.06
2022-12-01T04:37:40.062Z,99123.09
2022-12-01T04:40:08.982Z,99116.88
2022-12-01T04:42:37.356Z,99116.59
2022-12-01T04:45:06.085Z,99121.50
2022-12-01T04:47:34.057Z,99118.25
2022-12-01T04:50:01.964Z,99113.06
2022-12-01T04:52:35.012Z,99121.25
2022-12-01T04:55:04.052Z,99123.66
2022-12-01T04:57:31.948Z,99123.13
2022-12-01T04:59:59.879Z,99125.53
2022-12-01T05:02:27.883Z,99135.31
2022-12-01T05:04:55.841Z,99122.31
2022-12-01T05:07:23.796Z,99120.41
2022-12-01T05:09:52.477Z,99123.63
2022-12-01T05:12:20.476Z,99129.06
2022-12-01T05:14:48.606Z,99131.78
2022-12-01T05:17:16.542Z,99123.31
2022-12-01T05:20:03.347Z,99123.06
2022-12-01T05:22:57.261Z,99118.13
2022-12-01T05:25:19.556Z,99121.66
2022-12-01T05:27:47.482Z,99119.75
2022-12-01T05:30:15.432Z,99120.78
2022-12-01T05:32:44.444Z,99124.59
2022-12-01T05:35:12.818Z,99125.88
2022-12-01T05:37:40.789Z,99097.44
2022-12-01T05:40:09.790Z,99121.78
2022-12-01T05:42:37.914Z,99113.94
2022-12-01T05:45:06.444Z,99119.38
2022-12-01T05:47:34.346Z,99118.88
2022-12-01T05:50:05.812Z,99123.97
2022-12-01T05:52:35.304Z,99118.56
2022-12-01T05:55:05.117Z,99121.50
2022-12-01T05:57:33.474Z,99124.75
2022-12-01T06:00:01.544Z,99120.13
2022-12-01T06:02:42.946Z,99114.72
2022-12-01T06:05:11.029Z,99119.59
2022-12-01T06:07:40.405Z,99123.97
2022-12-01T06:10:09.604Z,99109.91
2022-12-01T06:12:38.110Z,99118.88
2022-12-01T06:15:07.526Z,99127.00
2022-12-01T06:17:39.895Z,99121.81
2022-12-01T06:20:08.897Z,99124.53
2022-12-01T06:22:37.009Z,99122.13
2022-12-01T06:25:05.397Z,99141.66
2022-12-01T06:27:33.300Z,99134.41
2022-12-01T06:30:01.275Z,99136.28
2022-12-01T06:32:29.193Z,99138.75
2022-12-01T06:34:57.112Z,99149.53
2022-12-01T06:37:25.093Z,99146.84
2022-12-01T06:39:53.132Z,99152.50
2022-12-01T06:42:21.068Z,99151.41
2022-12-01T06:44:49.185Z,99143.53
2022-12-01T06:47:17.255Z,99142.16
2022-12-01T06:49:45.525Z,99153.03
2022-12-01T06:52:13.413Z,99146.53
2022-12-01T06:54:41.295Z,99140.06
2022-12-01T06:57:09.535Z,99160.06
2022-12-01T06:59:37.660Z,99163.28
2022-12-01T07:02:05.660Z,99162.22
2022-12-01T07:04:33.605Z,99163.28
2022-12-01T07:07:01.523Z,99159.47
2022-12-01T07:09:29.402Z,99153.22
2022-12-01T07:11:57.277Z,99164.63
2022-12-01T07:14:26.951Z,99151.03
2022-12-01T07:16:55.075Z,99164.31
2022-12-01T07:19:23.088Z,99169.84
2022-12-01T07:21:51.150Z,99168.63
2022-12-01T07:24:19.005Z,99173.81
2022-12-01T07:26:48.023Z,99174.03
2022-12-01T07:29:15.913Z,99183.25
2022-12-01T07:31:44.186Z,99187.09
2022-12-01T07:34:15.423Z,99188.75
2022-12-01T07:36:43.315Z,99193.34
2022-12-01T07:39:11.296Z,99185.44
2022-12-01T07:41:39.280Z,99209.59
2022-12-01T07:44:09.082Z,99196.50
2022-12-01T07:46:37.583Z,99192.97
2022-12-01T07:49:07.433Z,99201.44
2022-12-01T07:51:35.345Z,99206.34
2022-12-01T07:54:05.307Z,99197.91
2022-12-01T07:56:33.974Z,99203.31
2022-12-01T07:59:01.906Z,99208.97
2022-12-01T08:01:29.943Z,99205.13
2022-12-01T08:03:59.161Z,99215.19
2022-12-01T08:06:27.550Z,99200.75
2022-12-01T08:08:56.101Z,99215.44
2022-12-01T08:11:26.762Z,99215.78
2022-12-01T08:13:54.741Z,99224.72
2022-12-01T08:16:24.600Z,99205.91
2022-12-01T08:18:52.741Z,99219.22
2022-12-01T08:21:23.013Z,99222.34
2022-12-01T08:23:54.670Z,99222.88
2022-12-01T08:26:24.231Z,99223.72
2022-12-01T08:28:52.158Z,99224.75
2022-12-01T08:31:32.045Z,99213.16
2022-12-01T08:34:00.034Z,99224.84
2022-12-01T08:36:27.993Z,99213.34
2022-12-01T08:38:56.477Z,99203.53
2022-12-01T08:41:25.278Z,99197.66
2022-12-01T08:43:58.421Z,99192.13
2022-12-01T08:46:36.301Z,99189.38
2022-12-01T08:49:05.753Z,99200.94
2022-12-01T08:51:33.955Z,99204.34
2022-12-01T08:54:02.427Z,99198.06
2022-12-01T08:56:36.828Z,99202.66
2022-12-01T08:59:05.202Z,99196.88
2022-12-01T09:01:33.337Z,99200.63
2022-12-01T09:04:05.875Z,99206.28
2022-12-01T09:06:45.842Z,99206.25
2022-12-01T09:09:17.600Z,99199.78
2022-12-01T09:11:47.043Z,99193.69
2022-12-01T09:14:16.326Z,99197.34
2022-12-01T09:16:47.792Z,99187.72
2022-12-01T09:19:23.668Z,99200.31
2022-12-01T09:21:53.342Z,99199.50
2022-12-01T09:24:21.408Z,99193.50
2022-12-01T09:26:49.541Z,99188.06
2022-12-01T09:29:17.551Z,99189.09
2022-12-01T09:31:45.454Z,99190.66
2022-12-01T09:34:17.535Z,99187.03
2022-12-01T09:36:46.810Z,99188.94
2022-12-01T09:39:17.625Z,99187.31
2022-12-01T09:41:45.532Z,99182.13
2022-12-01T09:44:30.452Z,99186.25
2022-12-01T09:47:20.236Z,99180.81
2022-12-01T09:50:07.446Z,99186.72
2022-12-01T09:52:48.178Z,99191.69
2022-12-01T09:55:18.974Z,99169.59
2022-12-01T09:57:53.750Z,99178.88
2022-12-01T10:00:24.358Z,99177.41
2022-12-01T10:03:13.578Z,99185.25
2022-12-01T10:06:18.415Z,99184.22
2022-12-01T10:08:44.175Z,99164.13
2022-12-01T10:11:24.381Z,99184.63
2022-12-01T10:13:52.461Z,99172.66
2022-12-01T10:16:29.947Z,99180.50
2022-12-01T10:19:27.006Z,99166.56
2022-12-01T10:22:09.298Z,99168.94
2022-12-01T10:24:50.624Z,99164.44
2022-12-01T10:27:58.207Z,99157.53
2022-12-01T10:30:26.304Z,99162.88
2022-12-01T10:32:58.201Z,99157.00
2022-12-01T10:35:29.351Z,99152.03
2022-12-01T10:38:01.459Z,99144.09
2022-12-01T10:40:34.563Z,99148.53
2022-12-01T10:43:03.511Z,99153.16
2022-12-01T10:45:37.302Z,99141.84
2022-12-01T10:48:20.768Z,99145.19
2022-12-01T10:50:57.700Z,99148.69
2022-12-01T10:53:33.611Z,99133.63
2022-12-01T10:56:19.576Z,99145.00
2022-12-01T10:58:49.780Z,99142.19
2022-12-01T11:01:25.185Z,99133.72
2022-12-01T11:04:01.609Z,99138.94
2022-12-01T11:06:31.166Z,99115.47
2022-12-01T11:09:03.892Z,99130.41
2022-12-01T11:11:40.094Z,99129.25
2022-12-01T11:14:47.620Z,99124.88
2022-12-01T11:17:27.294Z,99127.97
2022-12-01T11:19:55.588Z,99114.22
2022-12-01T11:22:30.532Z,99118.84
2022-12-01T11:25:00.821Z,99115.56
2022-12-01T11:27:32.955Z,99121.88
2022-12-01T11:30:24.590Z,99107.56
2022-12-01T11:33:01.814Z,99111.50
2022-12-01T11:35:38.878Z,99108.72
2022-12-01T11:38:29.446Z,99105.53
2022-12-01T11:40:57.721Z,99098.41
2022-12-01T11:43:32.643Z,99100.50
2022-12-01T11:46:05.473Z,99101.06
2022-12-01T11:48:36.405Z,99099.56
2022-12-01T11:51:27.662Z,99096.38
2022-12-01T11:54:22.566Z,99088.56
2022-12-01T11:57:17.345Z,99088.97
2022-12-01T11:59:40.721Z,99086.72
2022-12-01T12:02:37.679Z,99086.44
2022-12-01T12:05:26.631Z,99091.47
2022-12-01T12:08:16.479Z,99081.16
2022-12-01T12:10:53.827Z,99076.19
2022-12-01T12:13:48.742Z,99078.59
2022-12-01T12:16:19.986Z,99078.66
2022-12-01T12:19:06.543Z,99096.47
2022-12-01T12:21:42.636Z,99078.75
2022-12-01T12:24:47.784Z,99075.06
2022-12-01T12:27:24.570Z,99079.91
2022-12-01T12:30:15.451Z,99089.69
2022-12-01T12:33:22.244Z,99080.50
2022-12-01T12:35:53.479Z,99075.59
2022-12-01T12:38:56.425Z,99082.34
2022-12-01T12:41:34.459Z,99081.16
2022-12-01T12:44:36.615Z,99071.53
2022-12-01T12:47:19.874Z,99069.50
2022-12-01T12:50:09.633Z,99068.06
2022-12-01T12:52:42.383Z,99072.47
2022-12-01T12:55:19.235Z,99067.94
2022-12-01T12:57:53.262Z,99063.91
2022-12-01T13:00:25.294Z,99076.28
2022-12-01T13:02:57.457Z,99076.38
2022-12-01T13:05:44.886Z,99080.41
2022-12-01T13:08:23.533Z,99073.38
2022-12-01T13:11:04.960Z,99075.81
2022-12-01T13:13:57.381Z,99071.25
2022-12-01T13:16:36.546Z,99071.88
2022-12-01T13:19:25.229Z,99074.47
2022-12-01T13:21:54.104Z,99076.25
2022-12-01T13:24:24.898Z,99068.00
2022-12-01T13:26:59.979Z,99064.56
2022-12-01T13:29:38.396Z,99062.38
2022-12-01T13:32:29.769Z,99061.91
2022-12-01T13:34:59.431Z,99047.34
2022-12-01T13:37:30.671Z,99055.47
2022-12-01T13:40:31.102Z,99053.50
2022-12-01T13:43:10.319Z,99062.03
2022-12-01T13:45:40.890Z,99055.25
2022-12-01T13:48:49.652Z,99065.53
2022-12-01T13:51:17.725Z,99068.41
2022-12-01T13:54:06.385Z,99069.69
2022-12-01T13:56:39.404Z,99063.59
2022-12-01T13:59:42.113Z,99063.88
2022-12-01T14:02:18.442Z,99054.53
2022-12-01T14:04:47.153Z,99063.16
2022-12-01T14:07:21.091Z,99066.25
2022-12-01T14:09:56.528Z,99075.28
2022-12-01T14:12:30.237Z,99071.47
2022-12-01T14:15:04.761Z,99073.31
2022-12-01T14:17:35.241Z,99063.59
2022-12-01T14:20:19.268Z,99079.63
2022-12-01T14:23:09.556Z,99083.69
2022-12-01T14:25:39.691Z,99071.97
2022-12-01T14:28:18.962Z,99078.03
2022-12-01T14:30:50.356Z,99080.31
2022-12-01T14:33:39.780Z,99082.94
2022-12-01T14:36:17.351Z,99075.56
2022-12-01T14:38:47.271Z,99068.53
2022-12-01T14:41:30.811Z,99072.28
2022-12-01T14:44:12.796Z,99076.03
2022-12-01T14:46:50.411Z,99065.34
2022-12-01T14:49:24.278Z,99087.34
2022-12-01T14:52:02.941Z,99092.06
2022-12-01T14:54:43.331Z,99086.41
2022-12-01T14:57:16.868Z,99090.72
2022-12-01T14:59:45.323Z,99086.47
2022-12-01T15:02:14.044Z,99094.03
2022-12-01T15:05:07.949Z,99091.22
2022-12-01T15:07:40.771Z,99071.63
2022-12-01T15:10:19.942Z,99087.31
2022-12-01T15:12:49.194Z,99093.53
2022-12-01T15:15:23.673Z,99092.22
2022-12-01T15:17:55.502Z,99089.97
2022-12-01T15:20:37.717Z,99086.75
2022-12-01T15:23:14.726Z,99088.81
2022-12-01T15:25:45.462Z,99089.03
2022-12-01T15:28:16.485Z,99084.59
2022-12-01T15:30:48.532Z,99084.50
2022-12-01T15:33:27.006Z,99088.97
2022-12-01T15:35:57.135Z,99098.56
2022-12-01T15:38:37.086Z,99101.72
2022-12-01T15:43:58.967Z,99100.69
2022-12-01T15:46:32.541Z,99105.13
2022-12-01T15:49:09.036Z,99099.72
2022-12-01T15:51:37.390Z,99102.13
2022-12-01T15:54:05.522Z,99103.78
2022-12-01T15:56:39.444Z,99100.38
2022-12-01T15:59:13.344Z,99091.38
2022-12-01T16:01:44.011Z,99093.78
2022-12-01T16:04:20.274Z,99101.41
2022-12-01T16:06:57.200Z,99090.16
2022-12-01T16:09:39.719Z,99080.97
2022-12-01T16:12:16.818Z,99090.59
2022-12-01T16:14:59.811Z,99102.38
2022-12-01T16:17:40.946Z,99103.09
2022-12-01T16:20:31.855Z,99110.25
2022-12-01T16:23:10.289Z,99104.59
2022-12-01T16:25:44.278Z,99110.75
2022-12-01T16:28:24.428Z,99108.88
2022-12-01T16:30:52.999Z,99112.22
2022-12-01T16:33:24.072Z,99113.25
2022-12-01T16:35:52.718Z,99119.56
2022-12-01T16:38:25.160Z,99120.84
2022-12-01T16:40:55.871Z,99115.69
2022-12-01T16:43:26.506Z,99117.69
2022-12-01T16:46:03.578Z,99110.72
2022-12-01T16:48:31.661Z,99109.56
2022-12-01T16:51:03.594Z,99125.97
2022-12-01T16:53:31.706Z,99131.50
2022-12-01T16:56:01.882Z,99136.97
2022-12-01T16:58:30.246Z,99131.28
2022-12-01T17:00:58.785Z,99109.84
2022-12-01T17:03:28.494Z,99126.47
2022-12-01T17:05:59.829Z,99123.13
2022-12-01T17:08:28.493Z,99123.03
2022-12-01T17:10:56.936Z,99130.94
2022-12-01T17:13:24.845Z,99133.72
2022-12-01T17:15:54.973Z,99128.59
2022-12-01T17:18:24.185Z,99122.66
2022-12-01T17:20:59.568Z,99122.59
2022-12-01T17:23:28.274Z,99123.22
2022-12-01T17:25:56.138Z,99124.22
2022-12-01T17:28:24.021Z,99127.53
2022-12-01T17:30:51.976Z,99120.50
2022-12-01T17:33:19.976Z,99122.91
2022-12-01T17:35:49.877Z,99126.19
2022-12-01T17:38:17.817Z,99130.34
2022-12-01T17:40:45.717Z,99130.28
2022-12-01T17:43:13.698Z,99136.25
2022-12-01T17:45:42.901Z,99130.56
2022-12-01T17:48:11.024Z,99137.94
2022-12-01T17:50:38.933Z,99137.78
2022-12-01T17:53:06.808Z,99135.91
2022-12-01T17:55:34.681Z,99130.69
2022-12-01T17:58:03.804Z,99134.69
2022-12-01T18:00:32.358Z,99143.97
2022-12-01T18:03:00.361Z,99137.44
2022-12-01T18:05:29.479Z,99139.34
2022-12-01T18:07:57.445Z,99142.59
2022-12-01T18:10:25.339Z,99136.03
2022-12-01T18:12:53.211Z,99132.03
2022-12-01T18:15:21.131Z,99126.63
2022-12-01T18:17:49.152Z,99142.16
2022-12-01T18:20:17.086Z,99131.72
2022-12-01T18:22:45.401Z,99127.63
2022-12-01T18:25:13.425Z,99133.69
2022-12-01T18:27:41.341Z,99132.56
2022-12-01T18:30:09.860Z,99134.16
2022-12-01T18:32:37.988Z,99147.00
2022-12-01T18:35:06.462Z,99127.97
2022-12-01T18:37:36.542Z,99136.34
2022-12-01T18:40:04.956Z,99146.88
2022-12-01T18:42:33.023Z,99138.50
2022-12-01T18:45:00.901Z,99137.69
2022-12-01T18:47:29.394Z,99137.97
2022-12-01T18:49:57.292Z,99140.94
2022-12-01T18:52:25.294Z,99136.34
2022-12-01T18:54:54.366Z,99132.03
2022-12-01T18:57:22.294Z,99129.09
2022-12-01T18:59:50.847Z,99136.66
2022-12-01T19:02:20.336Z,99142.59
2022-12-01T19:04:50.170Z,99139.38
2022-12-01T19:07:18.846Z,99119.59
2022-12-01T19:09:46.837Z,99113.63
2022-12-01T19:12:14.916Z,99125.75
2022-12-01T19:14:42.874Z,99128.78
2022-12-01T19:17:10.781Z,99134.75
2022-12-01T19:19:39.350Z,99131.28
2022-12-01T19:22:07.357Z,99117.13
2022-12-01T19:24:35.720Z,99128.81
2022-12-01T19:27:04.422Z,99127.91
2022-12-01T19:29:32.510Z,99126.69
2022-12-01T19:32:01.693Z,99120.47
2022-12-01T19:34:29.697Z,99132.59
2022-12-01T19:36:57.875Z,99123.66
2022-12-01T19:39:25.790Z,99102.78
2022-12-01T19:41:53.741Z,99121.16
2022-12-01T19:44:22.447Z,99122.00
2022-12-01T19:46:50.450Z,99118.47
2022-12-01T19:49:18.301Z,99128.47
2022-12-01T19:51:46.498Z,99113.34
2022-12-01T19:54:17.930Z,99125.25
2022-12-01T19:56:47.132Z,99126.09
2022-12-01T19:59:15.305Z,99124.75
2022-12-01T20:01:43.359Z,99122.50
2022-12-01T20:04:11.832Z,99121.38
2022-12-01T20:06:39.804Z,99117.13
2022-12-01T20:09:08.402Z,99112.50
2022-12-01T20:11:36.913Z,99117.69
2022-12-01T20:14:07.618Z,99113.88
2022-12-01T20:16:35.875Z,99110.13
2022-12-01T20:19:05.607Z,99114.38
2022-12-01T20:21:35.618Z,99115.50
2022-12-01T20:24:08.305Z,99114.41
2022-12-01T20:26:43.077Z,99115.25
2022-12-01T20:29:25.469Z,99114.97
2022-12-01T20:31:55.546Z,99116.88
2022-12-01T20:34:27.353Z,99118.47
2022-12-01T20:36:56.323Z,99120.91
2022-12-01T20:39:25.360Z,99124.69
2022-12-01T20:41:53.293Z,99110.69
2022-12-01T20:44:21.682Z,99115.50
2022-12-01T20:46:49.588Z,99115.97
2022-12-01T20:49:18.848Z,99113.25
2022-12-01T20:51:47.122Z,99114.91
2022-12-01T20:54:32.735Z,99111.66
2022-12-01T20:57:00.722Z,99117.41
2022-12-01T20:59:29.015Z,99109.16
2022-12-01T21:01:57.564Z,99114.81
2022-12-01T21:04:26.875Z,99114.16
2022-12-01T21:06:56.695Z,99123.38
2022-12-01T21:09:26.012Z,99125.50
2022-12-01T21:12:27.033Z,99119.75
2022-12-01T21:15:13.600Z,99121.16
2022-12-01T21:17:48.467Z,99120.88
2022-12-01T21:20:42.922Z,99112.19
2022-12-01T21:23:14.547Z,99108.94
2022-12-01T21:25:43.635Z,99114.38
2022-12-01T21:28:23.450Z,99113.53
2022-12-01T21:31:00.411Z,99116.25
2022-12-01T21:33:33.128Z,99116.56
2022-12-01T21:36:18.188Z,99115.72
2022-12-01T21:38:49.596Z,99107.63
2022-12-01T21:41:28.906Z,99118.47
2022-12-01T21:44:04.566Z,99102.25
2022-12-01T21:46:32.679Z,99111.44
2022-12-01T21:49:01.418Z,99116.56
2022-12-01T21:51:30.822Z,99119.22
2022-12-01T21:54:01.875Z,99124.91
2022-12-01T21:56:31.670Z,99122.56
2022-12-01T21:59:11.520Z,99110.28
2022-12-01T22:01:40.481Z,99115.72
2022-12-01T22:04:16.691Z,99123.09
2022-12-01T22:06:49.235Z,99119.31
2022-12-01T22:09:26.098Z,99119.31
2022-12-01T22:12:11.210Z,99129.03
2022-12-01T22:14:39.398Z,99118.56
2022-12-01T22:17:07.179Z,99116.81
2022-12-01T22:19:40.023Z,99121.72
2022-12-01T22:22:10.899Z,99124.19
2022-12-01T22:24:40.712Z,99122.84
2022-12-01T22:27:25.195Z,99118.75
2022-12-01T22:29:58.438Z,99129.09
2022-12-01T22:32:44.637Z,99116.03
2022-12-01T22:35:19.264Z,99124.00
2022-12-01T22:37:50.786Z,99123.69
2022-12-01T22:40:40.131Z,99121.72
2022-12-01T22:43:19.864Z,99121.59
2022-12-01T22:46:00.157Z,99122.09
2022-12-01T22:48:28.036Z,99116.91
2022-12-01T22:51:21.399Z,99120.22
2022-12-01T22:54:06.464Z,99107.06
2022-12-01T22:56:36.702Z,99113.34
2022-12-01T22:59:21.341Z,99106.63
2022-12-01T23:01:58.931Z,99112.16
2022-12-01T23:04:27.760Z,99110.19
2022-12-01T23:07:00.318Z,99107.47
2022-12-01T23:09:35.731Z,99109.66
2022-12-01T23:12:12.762Z,99107.41
2022-12-01T23:14:45.354Z,99111.47
2022-12-01T23:17:18.508Z,99109.66
2022-12-01T23:19:47.494Z,99110.25
2022-12-01T23:22:16.724Z,99101.75
2022-12-01T23:24:45.081Z,99095.75
2022-12-01T23:27:16.489Z,99099.00
2022-12-01T23:29:44.368Z,99100.38
2022-12-01T23:32:12.647Z,99104.78
2022-12-01T23:34:40.696Z,99099.34
2022-12-01T23:37:34.926Z,99099.63
2022-12-01T23:40:19.927Z,99096.63
2022-12-01T23:42:48.726Z,99089.03
2022-12-01T23:45:22.946Z,99098.31
2022-12-01T23:47:53.325Z,99102.41
2022-12-01T23:50:30.362Z,99095.94
2022-12-01T23:52:58.213Z,99099.97
2022-12-01T23:55:29.190Z,99090.75
2022-12-01T23:57:58.890Z,99091.78
